Time;durP1;ratioP1;P1;durP2;ratioP2;P2;SDS_P1;SDS_P2;PMS_P1;PMS_P2;Temp;Humidity;BMP_temperature;BMP_pressure;BME280_temperature;BME280_humidity;BME280_pressure;Samples;Min_cycle;Max_cycle;Signal;HPM_P1;HPM_P2
2023/08/08 00:01:39;;;;;;;0.50;0.30;;;14.60;2.10;;;;;;5010189;28;20049;-75
2023/08/08 00:04:06;;;;;;;0.50;0.30;;;14.60;8.10;;;;;;5016145;28;20076;-75
2023/08/08 00:06:33;;;;;;;0.65;0.30;;;14.60;15.60;;;;;;5005019;28;20485;-75
2023/08/08 00:08:59;;;;;;;0.50;0.40;;;14.50;21.90;;;;;;5004898;28;20053;-76
2023/08/08 00:11:26;;;;;;;0.60;0.40;;;14.50;29.90;;;;;;5004340;28;20113;-75
2023/08/08 00:13:53;;;;;;;0.40;0.20;;;14.50;40.70;;;;;;5007851;28;20046;-75
2023/08/08 00:16:20;;;;;;;0.40;0.35;;;14.50;50.40;;;;;;5007847;28;20050;-74
2023/08/08 00:18:46;;;;;;;0.38;0.32;;;14.50;59.00;;;;;;5005468;28;20052;-75
2023/08/08 00:21:13;;;;;;;0.63;0.38;;;14.50;67.60;;;;;;5005216;28;20131;-75
2023/08/08 00:23:40;;;;;;;0.55;0.30;;;14.40;79.80;;;;;;5002252;28;20800;-75
2023/08/08 00:26:07;;;;;;;0.77;0.45;;;14.40;90.70;;;;;;5002603;28;20612;-74
2023/08/08 00:28:34;;;;;;;1.15;0.45;;;14.40;98.00;;;;;;5001735;28;20045;-75
2023/08/08 00:31:00;;;;;;;0.52;0.30;;;14.40;99.90;;;;;;5005190;28;20591;-75
2023/08/08 00:33:28;;;;;;;0.77;0.40;;;14.40;99.90;;;;;;5020530;28;20084;-74
2023/08/08 00:35:54;;;;;;;0.82;0.50;;;14.30;99.90;;;;;;5003982;28;20057;-74
2023/08/08 00:38:21;;;;;;;0.80;0.47;;;14.40;99.90;;;;;;5003978;28;20609;-75
2023/08/08 00:40:48;;;;;;;0.50;0.40;;;14.30;99.90;;;;;;5006759;28;20049;-75
2023/08/08 00:43:15;;;;;;;0.50;0.30;;;14.30;99.90;;;;;;5008839;28;20060;-75
2023/08/08 00:45:42;;;;;;;0.95;0.55;;;14.40;99.90;;;;;;5023651;28;20050;-76
2023/08/08 00:48:09;;;;;;;1.00;0.50;;;14.40;99.90;;;;;;5025882;28;20114;-75
2023/08/08 00:50:42;;;;;;;0.85;0.40;;;14.40;99.90;;;;;;5012269;28;20140;-75
2023/08/08 00:58:26;;;;;;;0.30;0.30;;;14.50;99.90;;;;;;5063824;28;20136;-74
2023/08/08 01:01:12;;;;;;;0.30;0.30;;;14.50;99.90;;;;;;5050412;28;20097;-73
2023/08/08 01:03:44;;;;;;;0.35;0.30;;;14.40;99.90;;;;;;5058832;28;20388;-75
2023/08/08 01:07:00;;;;;;;0.22;0.22;;;14.40;99.90;;;;;;5065596;28;20465;-73
2023/08/08 01:09:48;;;;;;;0.82;0.30;;;14.40;99.90;;;;;;5065715;28;20380;-73
2023/08/08 01:12:30;;;;;;;0.50;0.35;;;14.40;99.90;;;;;;5067154;28;20052;-73
2023/08/08 01:15:16;;;;;;;0.57;0.40;;;14.30;99.90;;;;;;5068826;28;20069;-73
2023/08/08 01:18:01;;;;;;;0.60;0.50;;;14.30;99.90;;;;;;5064961;28;20048;-73
2023/08/08 01:20:35;;;;;;;1.10;0.47;;;14.20;99.90;;;;;;5045984;28;20071;-75
2023/08/08 01:23:40;;;;;;;1.55;0.50;;;14.20;99.90;;;;;;5045427;28;20403;-74
2023/08/08 01:26:14;;;;;;;1.25;0.43;;;14.20;99.90;;;;;;5066575;28;20525;-74
2023/08/08 01:28:48;;;;;;;0.40;0.30;;;14.10;99.90;;;;;;5069068;28;20044;-74
2023/08/08 01:31:31;;;;;;;0.30;0.30;;;14.10;99.90;;;;;;5060915;28;20481;-74
2023/08/08 01:34:12;;;;;;;0.38;0.30;;;14.00;99.90;;;;;;5046507;28;20297;-74
2023/08/08 01:36:59;;;;;;;0.20;0.20;;;14.00;99.90;;;;;;5065267;28;20044;-73
2023/08/08 01:39:44;;;;;;;0.77;0.50;;;13.90;99.90;;;;;;5067389;28;20552;-73
2023/08/08 01:42:34;;;;;;;0.63;0.30;;;13.90;99.90;;;;;;5069874;28;20289;-73
2023/08/08 01:45:08;;;;;;;0.75;0.30;;;13.90;1.00;;;;;;5067923;28;20048;-73
2023/08/08 01:47:52;;;;;;;0.40;0.30;;;13.90;1.00;;;;;;5060727;28;20072;-73
2023/08/08 01:50:19;;;;;;;0.52;0.30;;;13.80;1.00;;;;;;5031077;28;20048;-74
2023/08/08 01:52:46;;;;;;;0.20;0.20;;;13.80;1.00;;;;;;5061436;28;20503;-73
2023/08/08 01:55:12;;;;;;;0.63;0.40;;;13.80;1.00;;;;;;5046949;28;20079;-74
2023/08/08 01:57:39;;;;;;;1.00;0.25;;;13.70;1.00;;;;;;5050557;28;20130;-73
2023/08/08 02:00:07;;;;;;;0.52;0.30;;;13.70;17.90;;;;;;5029959;28;20124;-73
2023/08/08 02:02:35;;;;;;;0.60;0.45;;;13.70;53.50;;;;;;5043953;28;20067;-73
2023/08/08 02:05:02;;;;;;;0.40;0.28;;;13.70;87.80;;;;;;5046025;28;20044;-73
2023/08/08 02:07:29;;;;;;;0.95;0.52;;;13.60;99.90;;;;;;5044613;28;20060;-74
2023/08/08 02:09:56;;;;;;;1.58;0.40;;;13.60;99.90;;;;;;5045209;28;20454;-73
2023/08/08 02:12:23;;;;;;;0.40;0.30;;;13.60;99.90;;;;;;5043893;28;20045;-73
2023/08/08 02:14:50;;;;;;;0.30;0.30;;;13.50;99.90;;;;;;5045988;28;20542;-73
2023/08/08 02:17:16;;;;;;;0.65;0.30;;;13.50;99.90;;;;;;5047877;28;20073;-73
2023/08/08 02:19:43;;;;;;;0.32;0.30;;;13.50;99.90;;;;;;5045635;28;20073;-73
2023/08/08 02:22:10;;;;;;;1.02;0.40;;;13.40;99.90;;;;;;5046460;28;20106;-74
2023/08/08 02:24:37;;;;;;;0.28;0.28;;;13.40;99.90;;;;;;5044862;28;20049;-73
2023/08/08 02:27:04;;;;;;;0.65;0.30;;;13.30;99.90;;;;;;5046288;28;20466;-73
2023/08/08 02:29:30;;;;;;;0.30;0.20;;;13.30;99.90;;;;;;5047283;28;20089;-73
2023/08/08 02:31:57;;;;;;;0.55;0.32;;;13.30;99.90;;;;;;5048093;28;20078;-73
2023/08/08 02:34:24;;;;;;;0.20;0.20;;;13.30;1.00;;;;;;5048000;28;20500;-73
2023/08/08 02:36:51;;;;;;;0.30;0.25;;;13.30;1.00;;;;;;5045852;28;20045;-73
2023/08/08 02:39:18;;;;;;;0.77;0.28;;;13.30;1.00;;;;;;5044875;28;20056;-73
2023/08/08 02:41:45;;;;;;;0.45;0.32;;;13.30;1.00;;;;;;5045836;28;20045;-73
2023/08/08 02:44:11;;;;;;;0.70;0.40;;;13.20;1.00;;;;;;5045239;28;20095;-73
2023/08/08 02:46:38;;;;;;;0.20;0.20;;;13.20;31.50;;;;;;5025976;28;20045;-73
2023/08/08 02:49:05;;;;;;;0.20;0.20;;;13.20;63.00;;;;;;5024879;28;20048;-73
2023/08/08 02:51:32;;;;;;;0.55;0.40;;;13.10;99.90;;;;;;5045643;28;20130;-73
2023/08/08 02:53:58;;;;;;;0.20;0.20;;;13.10;99.90;;;;;;5028362;28;20124;-73
2023/08/08 02:56:25;;;;;;;0.45;0.40;;;13.00;99.90;;;;;;5041414;28;20482;-76
2023/08/08 02:58:52;;;;;;;0.10;0.10;;;13.00;99.90;;;;;;5045743;28;20053;-73
2023/08/08 03:01:19;;;;;;;2.08;0.50;;;13.00;99.90;;;;;;5059100;28;20134;-74
2023/08/08 03:03:46;;;;;;;0.70;0.40;;;13.00;99.90;;;;;;5049270;28;20463;-73
2023/08/08 03:06:13;;;;;;;0.32;0.20;;;13.00;99.90;;;;;;5064154;28;20577;-73
2023/08/08 03:08:39;;;;;;;0.43;0.30;;;13.00;99.90;;;;;;5064305;28;20446;-73
2023/08/08 03:11:06;;;;;;;0.40;0.30;;;12.90;99.90;;;;;;5064371;28;20091;-74
2023/08/08 03:13:33;;;;;;;0.47;0.30;;;12.90;99.90;;;;;;5060807;28;20044;-73
2023/08/08 03:16:00;;;;;;;0.63;0.30;;;12.90;1.00;;;;;;5046844;28;20053;-73
2023/08/08 03:18:27;;;;;;;0.60;0.38;;;13.00;1.00;;;;;;5027225;28;20049;-73
2023/08/08 03:20:53;;;;;;;0.90;0.40;;;13.00;1.00;;;;;;5045543;28;20110;-74
2023/08/08 03:23:20;;;;;;;0.90;0.50;;;13.00;1.00;;;;;;5044540;28;20064;-73
2023/08/08 03:25:47;;;;;;;0.55;0.30;;;13.10;1.00;;;;;;5045665;28;20045;-73
2023/08/08 03:28:14;;;;;;;0.65;0.20;;;13.10;1.00;;;;;;5045209;28;20134;-73
2023/08/08 03:30:41;;;;;;;0.45;0.40;;;13.10;1.00;;;;;;5044763;28;20045;-73
2023/08/08 03:33:07;;;;;;;0.47;0.20;;;13.10;1.00;;;;;;5044634;28;20347;-73
2023/08/08 03:35:35;;;;;;;0.30;0.30;;;13.10;1.00;;;;;;5027230;28;20041;-73
2023/08/08 03:38:02;;;;;;;0.47;0.30;;;13.10;1.00;;;;;;5043896;28;20041;-73
2023/08/08 03:40:30;;;;;;;0.50;0.40;;;13.10;1.00;;;;;;5046238;28;20052;-73
2023/08/08 03:42:56;;;;;;;0.30;0.25;;;13.10;1.00;;;;;;5025262;28;20617;-73
2023/08/08 03:45:24;;;;;;;0.60;0.38;;;13.10;1.00;;;;;;5026137;28;20073;-73
2023/08/08 03:47:50;;;;;;;0.70;0.40;;;13.20;1.00;;;;;;5045542;28;20141;-73
2023/08/08 03:50:17;;;;;;;0.45;0.30;;;13.20;1.00;;;;;;5032898;28;20083;-73
2023/08/08 03:52:44;;;;;;;0.50;0.30;;;13.20;1.00;;;;;;5063601;28;20044;-73
2023/08/08 03:55:11;;;;;;;0.60;0.40;;;13.20;1.00;;;;;;5047132;28;20068;-73
2023/08/08 03:57:37;;;;;;;0.60;0.40;;;13.30;1.00;;;;;;5044776;28;20107;-73
2023/08/08 04:00:08;;;;;;;0.32;0.28;;;13.30;99.90;;;;;;5045714;28;20117;-73
2023/08/08 04:02:34;;;;;;;0.63;0.25;;;13.40;99.90;;;;;;5046092;28;20049;-74
2023/08/08 04:05:01;;;;;;;0.68;0.60;;;13.40;99.90;;;;;;5050554;28;20048;-74
2023/08/08 04:07:28;;;;;;;0.90;0.45;;;13.40;99.90;;;;;;5046069;28;20514;-73
2023/08/08 04:09:54;;;;;;;0.40;0.30;;;13.50;99.90;;;;;;5043177;28;20041;-73
2023/08/08 04:12:21;;;;;;;1.17;0.60;;;13.60;99.90;;;;;;5044711;28;20049;-74
2023/08/08 04:14:48;;;;;;;0.30;0.30;;;13.60;99.90;;;;;;5043716;28;20048;-73
2023/08/08 04:17:15;;;;;;;0.50;0.30;;;13.60;99.90;;;;;;5045520;28;20492;-74
2023/08/08 04:19:41;;;;;;;0.20;0.20;;;13.60;99.90;;;;;;5043651;28;20041;-73
2023/08/08 04:22:08;;;;;;;0.20;0.20;;;13.60;99.90;;;;;;5045650;28;20080;-73
2023/08/08 04:24:35;;;;;;;0.80;0.40;;;13.70;99.90;;;;;;5053171;28;20049;-73
2023/08/08 04:27:02;;;;;;;0.38;0.32;;;13.70;99.90;;;;;;5044086;28;20409;-73
2023/08/08 04:29:28;;;;;;;0.25;0.25;;;13.80;99.90;;;;;;5024303;28;20049;-73
2023/08/08 04:31:55;;;;;;;0.30;0.20;;;13.70;99.90;;;;;;5044045;28;20056;-73
2023/08/08 04:34:22;;;;;;;0.52;0.28;;;13.80;99.90;;;;;;5044678;28;20045;-73
2023/08/08 04:36:49;;;;;;;0.65;0.40;;;13.80;99.90;;;;;;5045709;28;20484;-74
2023/08/08 04:39:16;;;;;;;0.63;0.28;;;13.80;99.90;;;;;;5023749;28;20049;-73
2023/08/08 04:41:42;;;;;;;0.47;0.40;;;13.90;99.90;;;;;;5054667;28;20391;-73
2023/08/08 04:44:09;;;;;;;0.20;0.13;;;13.90;99.90;;;;;;5043650;28;20099;-73
2023/08/08 04:46:36;;;;;;;0.85;0.30;;;13.90;99.90;;;;;;5045324;28;20114;-73
2023/08/08 04:49:03;;;;;;;0.45;0.30;;;13.90;99.90;;;;;;5039861;28;20045;-73
2023/08/08 04:51:29;;;;;;;0.40;0.30;;;14.00;99.90;;;;;;5043074;28;21462;-73
2023/08/08 04:53:56;;;;;;;0.35;0.30;;;14.00;99.90;;;;;;5040681;28;20079;-74
2023/08/08 04:56:23;;;;;;;0.70;0.40;;;14.00;99.90;;;;;;5038773;28;20089;-73
2023/08/08 04:58:50;;;;;;;0.82;0.30;;;14.00;99.90;;;;;;5043201;28;20045;-73
2023/08/08 05:01:17;;;;;;;0.10;0.10;;;14.00;99.90;;;;;;5042947;28;20061;-74
2023/08/08 05:03:44;;;;;;;0.22;0.22;;;14.00;99.90;;;;;;5038995;28;20537;-74
2023/08/08 05:06:11;;;;;;;0.40;0.28;;;14.00;99.90;;;;;;5039632;28;20582;-74
2023/08/08 05:08:38;;;;;;;0.45;0.30;;;14.00;99.90;;;;;;5038900;28;20515;-73
2023/08/08 05:11:05;;;;;;;0.28;0.28;;;14.00;99.90;;;;;;5046547;28;20048;-74
2023/08/08 05:13:31;;;;;;;0.50;0.40;;;14.00;99.90;;;;;;5044577;28;20045;-74
2023/08/08 05:15:58;;;;;;;0.45;0.30;;;14.00;99.90;;;;;;5051850;28;20072;-74
2023/08/08 05:18:25;;;;;;;0.60;0.40;;;14.00;99.90;;;;;;5046737;28;20664;-74
2023/08/08 05:20:52;;;;;;;0.15;0.15;;;14.00;99.90;;;;;;5049640;28;20052;-74
2023/08/08 05:23:18;;;;;;;0.82;0.50;;;14.00;99.90;;;;;;5031565;28;20060;-74
2023/08/08 05:25:45;;;;;;;0.40;0.40;;;14.00;99.90;;;;;;5019241;28;20048;-74
2023/08/08 05:28:12;;;;;;;0.65;0.30;;;14.00;1.00;;;;;;5037991;28;20597;-74
2023/08/08 05:30:39;;;;;;;0.60;0.40;;;14.00;1.00;;;;;;5053286;28;20056;-74
2023/08/08 05:33:07;;;;;;;0.45;0.40;;;14.00;1.00;;;;;;5046439;28;20063;-74
2023/08/08 05:35:33;;;;;;;0.73;0.30;;;13.90;1.00;;;;;;4996647;28;20057;-74
2023/08/08 05:38:00;;;;;;;0.50;0.30;;;13.90;60.00;;;;;;5040435;28;20052;-74
2023/08/08 05:40:27;;;;;;;0.22;0.20;;;13.90;96.70;;;;;;5026132;28;20107;-74
2023/08/08 05:42:54;;;;;;;0.50;0.40;;;13.90;99.90;;;;;;5042247;28;20094;-74
2023/08/08 05:45:21;;;;;;;0.20;0.20;;;13.90;99.90;;;;;;5029907;28;20467;-74
2023/08/08 05:47:48;;;;;;;0.50;0.40;;;13.90;99.90;;;;;;5028114;28;20084;-73
2023/08/08 05:50:14;;;;;;;1.05;0.65;;;14.00;99.90;;;;;;5036502;28;20561;-74
2023/08/08 05:52:41;;;;;;;0.65;0.40;;;14.00;99.90;;;;;;5011524;28;20137;-74
2023/08/08 05:55:09;;;;;;;0.80;0.40;;;14.20;99.90;;;;;;5042257;28;20140;-74
2023/08/08 05:57:36;;;;;;;0.75;0.38;;;14.30;99.90;;;;;;5040232;28;20049;-74
2023/08/08 06:00:03;;;;;;;1.52;0.22;;;14.40;99.90;;;;;;5023636;28;20096;-74
2023/08/08 06:02:30;;;;;;;1.33;0.80;;;14.60;99.90;;;;;;5042684;28;20045;-74
2023/08/08 06:04:57;;;;;;;0.82;0.40;;;14.60;75.50;;;;;;5035644;28;20055;-74
2023/08/08 06:07:24;;;;;;;0.52;0.47;;;14.60;25.90;;;;;;5035265;28;20103;-74
2023/08/08 06:09:51;;;;;;;0.60;0.50;;;14.70;6.60;;;;;;5035917;28;20049;-75
2023/08/08 06:12:18;;;;;;;0.40;0.40;;;14.70;3.40;;;;;;5035199;28;20048;-74
2023/08/08 06:14:45;;;;;;;1.92;0.50;;;14.70;7.90;;;;;;5043197;28;20052;-74
2023/08/08 06:17:12;;;;;;;0.95;0.60;;;14.80;41.20;;;;;;5045486;28;20379;-74
2023/08/08 06:19:39;;;;;;;1.08;0.63;;;14.70;81.30;;;;;;5026193;28;20049;-74
2023/08/08 06:22:05;;;;;;;1.08;0.60;;;14.70;61.60;;;;;;5039710;28;20063;-74
2023/08/08 06:24:32;;;;;;;1.58;0.70;;;14.70;83.30;;;;;;5036377;28;20052;-74
2023/08/08 06:26:59;;;;;;;0.60;0.45;;;14.70;67.80;;;;;;5035918;28;20073;-74
2023/08/08 06:29:26;;;;;;;0.35;0.25;;;14.80;93.90;;;;;;5018507;28;20057;-75
2023/08/08 06:31:53;;;;;;;0.32;0.32;;;14.90;99.90;;;;;;5030524;28;20049;-75
2023/08/08 06:34:20;;;;;;;0.52;0.50;;;15.10;55.80;;;;;;5039346;28;20049;-74
2023/08/08 06:36:47;;;;;;;0.52;0.30;;;15.20;1.00;;;;;;5032740;28;20045;-75
2023/08/08 06:39:14;;;;;;;0.65;0.43;;;15.30;99.90;;;;;;5043750;28;20455;-75
2023/08/08 06:41:41;;;;;;;0.80;0.35;;;15.40;99.90;;;;;;5039593;28;20053;-74
2023/08/08 06:44:08;;;;;;;0.65;0.52;;;15.30;99.90;;;;;;5023346;28;20588;-76
2023/08/08 06:46:35;;;;;;;0.50;0.47;;;15.30;99.90;;;;;;5042053;28;20452;-75
2023/08/08 06:49:03;;;;;;;1.08;0.60;;;15.30;99.90;;;;;;5030382;28;20411;-75
2023/08/08 06:51:29;;;;;;;0.88;0.50;;;15.40;99.90;;;;;;5045031;28;20091;-75
2023/08/08 06:53:56;;;;;;;1.63;0.82;;;15.50;99.90;;;;;;5045168;28;20156;-75
2023/08/08 06:56:23;;;;;;;1.52;0.65;;;15.60;92.00;;;;;;5046637;28;20049;-75
2023/08/08 06:58:50;;;;;;;1.13;0.80;;;15.80;6.20;;;;;;5043766;28;20087;-75
2023/08/08 07:01:16;;;;;;;0.60;0.47;;;15.90;1.00;;;;;;5041852;28;20061;-75
2023/08/08 07:03:43;;;;;;;2.10;1.02;;;15.90;1.00;;;;;;5042358;28;20052;-75
2023/08/08 07:06:10;;;;;;;0.68;0.50;;;16.00;99.90;;;;;;5042407;28;20063;-75
2023/08/08 07:08:39;;;;;;;0.65;0.50;;;16.00;99.90;;;;;;5043327;28;20542;-75
2023/08/08 07:11:06;;;;;;;0.90;0.70;;;16.10;99.90;;;;;;5045490;28;20056;-75
2023/08/08 07:13:33;;;;;;;0.43;0.40;;;16.20;99.90;;;;;;5045159;28;20128;-74
2023/08/08 07:16:00;;;;;;;0.90;0.57;;;16.20;99.90;;;;;;5045774;28;20056;-75
2023/08/08 07:18:28;;;;;;;0.45;0.35;;;16.40;1.00;;;;;;5046109;28;20049;-75
2023/08/08 07:20:56;;;;;;;1.13;0.40;;;16.60;1.00;;;;;;5046600;28;20514;-75
2023/08/08 07:23:23;;;;;;;0.77;0.50;;;16.70;99.90;;;;;;5041631;28;20171;-75
2023/08/08 07:25:50;;;;;;;0.98;0.60;;;16.70;99.90;;;;;;5044963;28;20053;-74
2023/08/08 07:28:17;;;;;;;0.68;0.50;;;16.70;99.90;;;;;;5012650;28;20136;-75
2023/08/08 07:30:44;;;;;;;0.80;0.50;;;16.70;99.90;;;;;;5045530;28;20075;-75
2023/08/08 07:33:11;;;;;;;1.30;0.57;;;16.60;99.90;;;;;;5027801;28;20067;-75
2023/08/08 07:35:38;;;;;;;0.98;0.50;;;16.60;99.90;;;;;;5025232;28;20419;-74
2023/08/08 07:38:05;;;;;;;1.27;0.60;;;16.50;99.90;;;;;;5040881;28;20107;-75
2023/08/08 07:40:31;;;;;;;0.85;0.57;;;16.50;99.90;;;;;;5044761;28;20114;-75
2023/08/08 07:42:58;;;;;;;1.30;0.47;;;16.50;99.90;;;;;;5028388;28;20064;-75
2023/08/08 07:45:25;;;;;;;0.55;0.43;;;16.50;99.90;;;;;;5045276;28;20643;-75
2023/08/08 07:47:52;;;;;;;0.50;0.40;;;16.50;99.90;;;;;;5044492;28;20055;-75
2023/08/08 07:50:19;;;;;;;1.15;0.63;;;16.50;1.00;;;;;;5027437;28;20814;-75
2023/08/08 07:52:45;;;;;;;1.10;0.43;;;16.50;3.10;;;;;;5044682;28;20102;-74
2023/08/08 07:55:12;;;;;;;0.73;0.50;;;16.40;1.00;;;;;;5043273;28;20045;-75
2023/08/08 07:57:39;;;;;;;0.77;0.40;;;16.30;99.90;;;;;;5044715;28;20520;-75
2023/08/08 08:00:12;;;;;;;0.43;0.43;;;16.00;1.00;;;;;;5026953;28;20053;-74
2023/08/08 08:02:42;;;;;;;1.40;0.60;;;15.90;1.00;;;;;;5042195;28;20727;-75
2023/08/08 08:05:09;;;;;;;0.25;0.25;;;15.70;1.00;;;;;;5037646;28;20143;-75
2023/08/08 08:07:36;;;;;;;0.45;0.35;;;15.60;99.90;;;;;;5006447;28;20496;-75
2023/08/08 08:10:04;;;;;;;0.68;0.52;;;15.60;99.90;;;;;;5034156;28;20041;-76
2023/08/08 08:12:31;;;;;;;0.50;0.50;;;15.50;99.90;;;;;;5038446;28;20057;-75
2023/08/08 08:14:58;;;;;;;0.90;0.50;;;15.50;99.90;;;;;;5013920;28;21705;-75
2023/08/08 08:17:24;;;;;;;0.52;0.40;;;15.50;99.90;;;;;;5036329;28;20080;-75
2023/08/08 08:19:51;;;;;;;0.73;0.50;;;15.50;1.00;;;;;;5037434;28;20139;-75
2023/08/08 08:22:18;;;;;;;0.40;0.30;;;15.60;39.60;;;;;;5021206;28;20111;-75
2023/08/08 08:24:45;;;;;;;0.50;0.35;;;15.60;13.30;;;;;;5039967;28;20075;-74
2023/08/08 08:27:12;;;;;;;0.60;0.40;;;15.70;1.00;;;;;;5037003;28;20115;-74
2023/08/08 08:29:39;;;;;;;1.02;0.50;;;15.70;10.90;;;;;;5025717;28;20099;-74
2023/08/08 08:32:06;;;;;;;0.43;0.40;;;15.70;1.00;;;;;;5018696;28;20190;-74
2023/08/08 08:34:33;;;;;;;0.75;0.50;;;15.70;84.80;;;;;;5029929;28;20049;-74
2023/08/08 08:37:00;;;;;;;0.20;0.20;;;15.70;78.80;;;;;;5021618;28;20063;-74
2023/08/08 08:39:27;;;;;;;0.98;0.50;;;15.60;97.10;;;;;;5031971;28;20049;-75
2023/08/08 08:41:58;;;;;;;1.45;0.38;;;15.60;99.90;;;;;;5018152;28;20053;-74
2023/08/08 08:44:25;;;;;;;1.17;0.50;;;15.70;99.90;;;;;;5019864;28;20127;-74
2023/08/08 08:46:52;;;;;;;0.63;0.45;;;15.70;99.90;;;;;;5021680;28;20415;-74
2023/08/08 08:49:19;;;;;;;0.70;0.40;;;15.60;99.90;;;;;;5025326;28;20103;-75
2023/08/08 08:51:45;;;;;;;1.10;0.60;;;15.60;1.00;;;;;;5030347;28;20766;-74
2023/08/08 08:54:12;;;;;;;0.85;0.50;;;15.60;1.00;;;;;;5028484;28;20136;-74
2023/08/08 08:56:39;;;;;;;0.77;0.60;;;15.60;99.90;;;;;;5029935;28;20049;-75
2023/08/08 08:59:06;;;;;;;0.63;0.50;;;15.60;48.50;;;;;;5020484;28;20045;-74
2023/08/08 09:01:32;;;;;;;0.82;0.50;;;15.50;36.00;;;;;;5019132;28;20480;-75
2023/08/08 09:03:59;;;;;;;0.98;0.70;;;15.50;99.90;;;;;;5039953;28;20613;-74
2023/08/08 09:06:26;;;;;;;0.50;0.50;;;15.60;1.00;;;;;;5025897;28;20462;-76
2023/08/08 09:08:53;;;;;;;1.02;0.60;;;15.60;95.50;;;;;;5028382;28;20052;-75
2023/08/08 09:11:28;;;;;;;0.40;0.40;;;15.60;1.00;;;;;;5042589;28;20122;-74
2023/08/08 09:13:55;;;;;;;0.57;0.40;;;15.60;99.90;;;;;;5043889;28;20126;-74
2023/08/08 09:16:23;;;;;;;1.05;0.55;;;15.60;99.90;;;;;;5053448;28;20053;-74
2023/08/08 09:18:50;;;;;;;0.75;0.55;;;15.60;99.90;;;;;;5041191;28;20440;-74
2023/08/08 09:21:18;;;;;;;0.45;0.40;;;15.70;99.90;;;;;;5042657;28;20118;-74
2023/08/08 09:23:45;;;;;;;0.65;0.47;;;15.90;99.90;;;;;;5026979;28;20460;-74
2023/08/08 09:26:13;;;;;;;0.38;0.28;;;15.90;99.90;;;;;;5042766;28;20527;-74
2023/08/08 09:28:40;;;;;;;0.40;0.40;;;16.00;99.90;;;;;;5046883;28;20048;-74
2023/08/08 09:31:07;;;;;;;0.38;0.38;;;16.10;99.90;;;;;;5048566;28;20041;-75
2023/08/08 09:33:34;;;;;;;0.40;0.40;;;16.10;99.90;;;;;;5008178;28;20526;-74
2023/08/08 09:36:00;;;;;;;0.80;0.45;;;16.00;99.90;;;;;;5043785;28;20068;-74
2023/08/08 09:38:27;;;;;;;1.55;0.60;;;16.00;99.90;;;;;;5047505;28;20099;-74
2023/08/08 09:40:54;;;;;;;0.50;0.40;;;16.00;99.90;;;;;;5031336;28;20551;-74
2023/08/08 09:43:21;;;;;;;0.35;0.30;;;16.00;1.00;;;;;;5031077;28;20141;-74
2023/08/08 09:45:48;;;;;;;0.32;0.30;;;16.10;1.00;;;;;;5048092;28;20049;-74
2023/08/08 09:48:14;;;;;;;0.40;0.32;;;16.20;99.90;;;;;;5048453;28;20076;-74
2023/08/08 09:50:41;;;;;;;0.32;0.30;;;16.20;1.00;;;;;;5047280;28;20049;-75
2023/08/08 09:53:08;;;;;;;0.30;0.30;;;16.20;1.00;;;;;;5045773;28;20060;-74
2023/08/08 09:55:35;;;;;;;0.85;0.60;;;16.20;1.00;;;;;;5047346;28;20045;-73
2023/08/08 09:58:02;;;;;;;0.20;0.20;;;16.30;1.00;;;;;;5042184;28;20531;-74
2023/08/08 10:00:30;;;;;;;0.43;0.40;;;16.40;99.90;;;;;;5040990;28;20056;-74
2023/08/08 10:03:00;;;;;;;0.40;0.30;;;16.40;99.90;;;;;;5023312;28;20144;-74
2023/08/08 10:05:27;;;;;;;0.60;0.47;;;16.50;99.90;;;;;;5026679;28;20045;-74
2023/08/08 10:07:55;;;;;;;0.40;0.38;;;16.30;99.90;;;;;;5020647;28;20136;-74
2023/08/08 10:10:21;;;;;;;0.55;0.38;;;16.20;99.90;;;;;;5034121;28;20049;-75
2023/08/08 10:12:48;;;;;;;0.70;0.50;;;16.10;1.00;;;;;;5038754;28;20133;-71
2023/08/08 10:15:15;;;;;;;0.20;0.20;;;16.10;99.90;;;;;;5041290;28;20071;-70
2023/08/08 10:17:42;;;;;;;0.40;0.40;;;16.10;99.90;;;;;;5040500;28;20063;-71
2023/08/08 10:20:12;;;;;;;0.35;0.32;;;16.20;99.90;;;;;;5040150;28;20069;-71
2023/08/08 10:22:44;;;;;;;0.47;0.30;;;16.30;99.90;;;;;;5040698;28;20114;-70
2023/08/08 10:25:38;;;;;;;0.65;0.40;;;16.40;99.90;;;;;;5022271;28;20044;-70
2023/08/08 10:28:07;;;;;;;0.82;0.35;;;16.40;99.90;;;;;;5034632;28;20045;-70
2023/08/08 10:30:47;;;;;;;1.02;0.30;;;16.40;99.90;;;;;;5027161;28;20091;-70
2023/08/08 10:33:18;;;;;;;0.20;0.20;;;16.40;99.90;;;;;;5039870;28;20118;-70
2023/08/08 10:36:01;;;;;;;0.20;0.20;;;16.40;99.90;;;;;;5020346;28;20053;-70
2023/08/08 10:38:52;;;;;;;0.22;0.22;;;16.30;99.90;;;;;;5032992;28;20053;-70
2023/08/08 10:41:20;;;;;;;0.35;0.35;;;16.30;99.90;;;;;;5046173;28;20056;-71
2023/08/08 10:43:59;;;;;;;0.40;0.30;;;16.50;99.90;;;;;;5046007;28;20541;-71
2023/08/08 10:46:31;;;;;;;0.30;0.30;;;16.50;99.90;;;;;;5048423;28;20049;-71
2023/08/08 10:49:02;;;;;;;0.55;0.20;;;16.40;99.90;;;;;;5029810;28;20558;-70
2023/08/08 10:51:35;;;;;;;0.93;0.50;;;16.40;99.90;;;;;;5008221;28;20507;-70
2023/08/08 10:54:27;;;;;;;0.38;0.30;;;16.50;99.90;;;;;;5009541;28;20053;-70
2023/08/08 10:56:55;;;;;;;0.38;0.38;;;16.80;99.90;;;;;;5039633;28;20056;-71
2023/08/08 10:59:23;;;;;;;0.30;0.30;;;17.10;99.90;;;;;;5019702;28;20049;-71
2023/08/08 11:01:51;;;;;;;0.30;0.30;;;17.50;32.70;;;;;;5029381;28;20052;-71
2023/08/08 11:04:23;;;;;;;0.40;0.40;;;17.80;99.90;;;;;;5022556;28;20065;-72
2023/08/08 11:06:50;;;;;;;0.50;0.50;;;18.30;99.90;;;;;;5028079;28;20092;-71
2023/08/08 11:09:17;;;;;;;0.55;0.38;;;18.50;99.90;;;;;;5026162;28;20408;-71
2023/08/08 11:11:44;;;;;;;0.30;0.30;;;18.60;99.90;;;;;;5040483;28;20484;-71
2023/08/08 11:14:16;;;;;;;0.50;0.40;;;18.50;1.00;;;;;;5039697;28;20076;-71
2023/08/08 11:16:43;;;;;;;0.55;0.40;;;18.40;1.00;;;;;;5042848;28;20048;-71
2023/08/08 11:19:10;;;;;;;0.60;0.40;;;18.30;99.90;;;;;;5045892;28;20182;-71
2023/08/08 11:21:40;;;;;;;0.57;0.40;;;18.30;99.90;;;;;;5035234;28;20444;-73
2023/08/08 11:24:07;;;;;;;0.40;0.40;;;18.10;99.90;;;;;;5025383;28;20041;-71
2023/08/08 11:26:34;;;;;;;0.30;0.30;;;18.00;99.90;;;;;;5038265;28;20060;-71
2023/08/08 11:29:03;;;;;;;0.90;0.60;;;17.90;99.90;;;;;;5041030;28;20056;-71
2023/08/08 11:31:30;;;;;;;0.40;0.40;;;17.90;1.00;;;;;;5038986;28;20219;-71
2023/08/08 11:33:59;;;;;;;0.73;0.38;;;18.00;1.00;;;;;;5018298;28;20052;-71
2023/08/08 11:36:28;;;;;;;0.47;0.40;;;18.00;1.00;;;;;;5043644;28;20405;-71
2023/08/08 11:38:56;;;;;;;0.60;0.50;;;18.00;1.00;;;;;;5040328;28;20547;-71
2023/08/08 11:41:23;;;;;;;0.40;0.30;;;17.90;99.90;;;;;;5005641;28;20092;-71
2023/08/08 11:43:50;;;;;;;0.30;0.30;;;17.80;1.00;;;;;;5026474;28;20581;-71
2023/08/08 11:46:17;;;;;;;1.50;0.73;;;17.80;1.00;;;;;;5045330;28;20102;-74
2023/08/08 11:48:48;;;;;;;0.57;0.40;;;17.70;99.90;;;;;;5023010;28;20122;-75
2023/08/08 11:51:16;;;;;;;0.47;0.47;;;17.60;1.00;;;;;;5034361;28;20149;-75
2023/08/08 11:54:02;;;;;;;0.43;0.40;;;17.70;1.00;;;;;;5030414;28;20049;-74
2023/08/08 11:56:32;;;;;;;0.85;0.50;;;17.70;99.90;;;;;;5023877;28;20072;-74
2023/08/08 11:58:59;;;;;;;0.40;0.40;;;17.70;99.90;;;;;;5022108;28;20049;-74
2023/08/08 12:01:31;;;;;;;0.50;0.50;;;17.60;1.00;;;;;;5038453;28;20547;-74
2023/08/08 12:04:03;;;;;;;0.63;0.45;;;17.60;1.00;;;;;;5019484;28;20137;-74
2023/08/08 12:06:31;;;;;;;0.50;0.50;;;17.60;99.90;;;;;;5021875;28;20063;-74
2023/08/08 12:08:58;;;;;;;0.52;0.45;;;17.60;99.90;;;;;;5027434;28;20455;-75
2023/08/08 12:11:25;;;;;;;0.98;0.60;;;17.60;13.30;;;;;;5021748;28;20065;-75
2023/08/08 12:14:00;;;;;;;1.05;0.52;;;17.60;1.00;;;;;;5037453;28;20057;-74
2023/08/08 12:16:29;;;;;;;0.52;0.47;;;17.60;5.00;;;;;;5022773;28;20059;-75
2023/08/08 12:19:04;;;;;;;0.93;0.63;;;17.70;99.90;;;;;;5023802;28;20057;-74
2023/08/08 12:21:33;;;;;;;0.80;0.50;;;17.70;99.90;;;;;;5022604;28;20467;-74
2023/08/08 12:23:59;;;;;;;0.63;0.50;;;17.70;99.90;;;;;;5033055;28;20056;-74
2023/08/08 12:26:26;;;;;;;0.40;0.40;;;17.80;99.90;;;;;;4999466;28;20057;-74
2023/08/08 12:28:54;;;;;;;0.50;0.40;;;18.00;99.90;;;;;;5018185;28;20163;-74
2023/08/08 12:31:21;;;;;;;0.65;0.60;;;18.10;99.90;;;;;;5014774;28;20131;-74
2023/08/08 12:33:48;;;;;;;0.40;0.38;;;18.10;99.90;;;;;;5021574;28;20152;-74
2023/08/08 12:36:15;;;;;;;0.50;0.40;;;18.20;99.90;;;;;;5037174;28;20377;-74
2023/08/08 12:38:42;;;;;;;0.40;0.30;;;18.40;1.00;;;;;;5037001;28;20118;-74
2023/08/08 12:41:10;;;;;;;0.20;0.20;;;18.60;91.30;;;;;;5037625;28;20049;-74
2023/08/08 12:43:37;;;;;;;0.38;0.30;;;18.90;1.00;;;;;;5038358;28;20081;-73
2023/08/08 12:46:04;;;;;;;0.32;0.32;;;19.00;1.00;;;;;;5037275;28;20049;-73
2023/08/08 12:48:31;;;;;;;0.40;0.40;;;19.00;1.00;;;;;;5036144;28;20049;-73
2023/08/08 12:50:58;;;;;;;0.30;0.30;;;18.90;99.90;;;;;;5020896;28;20086;-73
2023/08/08 12:53:25;;;;;;;0.35;0.30;;;18.70;99.90;;;;;;5033966;28;20052;-73
2023/08/08 12:55:51;;;;;;;0.38;0.20;;;18.40;96.70;;;;;;5017069;28;20041;-73
2023/08/08 12:58:18;;;;;;;0.20;0.20;;;18.10;99.90;;;;;;5017516;28;20073;-73
2023/08/08 13:00:46;;;;;;;0.38;0.20;;;18.10;99.90;;;;;;5032869;28;20061;-72
2023/08/08 13:03:13;;;;;;;0.40;0.30;;;18.00;99.90;;;;;;5036982;28;20071;-73